createdAt,value
2022-09-16T00:01:30.305Z,98964.59
2022-09-16T00:04:20.576Z,98955.94
2022-09-16T00:07:07.707Z,98969.38
2022-09-16T00:10:02.088Z,98953.59
2022-09-16T00:12:50.090Z,98966.25
2022-09-16T00:15:37.936Z,98968.06
2022-09-16T00:18:25.205Z,98965.25
2022-09-16T00:21:14.381Z,98963.69
2022-09-16T00:24:01.830Z,98975.78
2022-09-16T00:26:49.025Z,98974.22
2022-09-16T00:29:36.439Z,98970.28
2022-09-16T00:32:24.141Z,98974.78
2022-09-16T00:35:11.584Z,98965.56
2022-09-16T00:38:00.186Z,98960.59
2022-09-16T00:40:50.435Z,98961.69
2022-09-16T00:43:54.305Z,98961.69
2022-09-16T00:46:46.192Z,98960.91
2022-09-16T00:49:33.661Z,98956.69
2022-09-16T00:52:21.725Z,98959.59
2022-09-16T00:55:15.649Z,98962.78
2022-09-16T00:58:09.346Z,98964.94
2022-09-16T01:00:56.904Z,98963.38
2022-09-16T01:03:48.008Z,98965.50
2022-09-16T01:06:39.981Z,98956.06
2022-09-16T01:09:29.301Z,98962.38
2022-09-16T01:12:18.299Z,98949.50
2022-09-16T01:15:07.843Z,98957.38
2022-09-16T01:18:15.572Z,98956.91
2022-09-16T01:21:32.757Z,98962.72
2022-09-16T01:24:51.824Z,98951.97
2022-09-16T01:28:06.662Z,98946.72
2022-09-16T01:31:06.141Z,98951.22
2022-09-16T01:34:02.700Z,98956.75
2022-09-16T01:36:55.519Z,98962.28
2022-09-16T01:39:51.022Z,98961.00
2022-09-16T01:42:46.898Z,98962.03
2022-09-16T01:45:41.142Z,98964.69
2022-09-16T01:48:38.997Z,98964.19
2022-09-16T01:51:32.862Z,98974.72
2022-09-16T01:54:28.143Z,98970.50
2022-09-16T01:57:20.578Z,98971.56
2022-09-16T02:00:11.888Z,98974.47
2022-09-16T02:03:05.145Z,98964.75
2022-09-16T02:06:00.007Z,98973.72
2022-09-16T02:08:53.702Z,98968.44
2022-09-16T02:11:43.311Z,98966.88
2022-09-16T02:14:33.791Z,98954.78
2022-09-16T02:17:25.066Z,98940.84
2022-09-16T02:20:18.671Z,98928.28
2022-09-16T02:23:16.795Z,98913.09
2022-09-16T02:26:08.162Z,98916.63
2022-09-16T02:28:57.475Z,98941.41
2022-09-16T02:31:46.292Z,98937.22
2022-09-16T02:34:39.116Z,98942.47
2022-09-16T02:37:32.265Z,98958.25
2022-09-16T02:40:26.985Z,98961.34
2022-09-16T02:43:14.639Z,98960.78
2022-09-16T02:46:12.498Z,98949.22
2022-09-16T02:49:10.798Z,98938.41
2022-09-16T02:52:01.586Z,98947.63
2022-09-16T02:54:57.613Z,98951.81
2022-09-16T02:57:46.467Z,98963.09
2022-09-16T03:00:38.815Z,98974.66
2022-09-16T03:03:26.899Z,98964.94
2022-09-16T03:06:26.133Z,98975.47
2022-09-16T03:09:17.905Z,98975.47
2022-09-16T03:12:46.629Z,98982.06
2022-09-16T03:15:52.986Z,98974.66
2022-09-16T03:19:02.943Z,98975.47
2022-09-16T03:22:03.094Z,98962.31
2022-09-16T03:24:59.985Z,98959.69
2022-09-16T03:27:53.418Z,98968.38
2022-09-16T03:30:51.309Z,98955.22
2022-09-16T03:33:47.725Z,98949.97
2022-09-16T03:36:42.238Z,98957.06
2022-09-16T03:39:29.835Z,98952.88
2022-09-16T03:42:19.104Z,98947.63
2022-09-16T03:45:11.740Z,98950.72
2022-09-16T03:47:58.970Z,98938.66
2022-09-16T03:50:46.575Z,98945.47
2022-09-16T03:53:34.042Z,98941.28
2022-09-16T03:56:21.813Z,98938.66
2022-09-16T03:59:09.650Z,98938.66
2022-09-16T04:01:58.532Z,98941.28
2022-09-16T04:04:46.621Z,98932.59
2022-09-16T04:07:34.543Z,98934.47
2022-09-16T04:10:22.075Z,98936.59
2022-09-16T04:13:09.666Z,98928.97
2022-09-16T04:15:56.870Z,98933.97
2022-09-16T04:18:45.491Z,98934.75
2022-09-16T04:21:33.004Z,98940.00
2022-09-16T04:24:20.773Z,98939.22
2022-09-16T04:27:08.068Z,98939.22
2022-09-16T04:29:56.375Z,98938.16
2022-09-16T04:32:43.829Z,98938.41
2022-09-16T04:35:32.627Z,98933.16
2022-09-16T04:38:20.043Z,98938.41
2022-09-16T04:41:10.356Z,98930.53
2022-09-16T04:44:00.181Z,98933.16
2022-09-16T04:46:47.860Z,98933.16
2022-09-16T04:49:35.176Z,98936.06
2022-09-16T04:52:23.922Z,98928.78
2022-09-16T04:55:11.684Z,98930.59
2022-09-16T04:58:01.432Z,98931.41
2022-09-16T05:00:48.952Z,98926.16
2022-09-16T05:03:36.251Z,98926.16
2022-09-16T05:06:28.495Z,98926.16
2022-09-16T05:09:17.004Z,98932.97
2022-09-16T05:12:04.368Z,98934.31
2022-09-16T05:14:52.155Z,98926.19
2022-09-16T05:17:50.779Z,98936.69
2022-09-16T05:20:38.874Z,98935.41
2022-09-16T05:23:27.467Z,98930.97
2022-09-16T05:26:19.486Z,98932.50
2022-09-16T05:29:09.669Z,98932.50
2022-09-16T05:31:58.054Z,98936.69
2022-09-16T05:34:45.172Z,98938.53
2022-09-16T05:37:32.565Z,98936.97
2022-09-16T05:40:19.860Z,98932.00
2022-09-16T05:43:08.697Z,98934.63
2022-09-16T05:45:57.124Z,98937.81
2022-09-16T05:48:44.825Z,98942.56
2022-09-16T05:51:32.192Z,98933.91
2022-09-16T05:54:20.262Z,98936.53
2022-09-16T05:57:07.856Z,98933.09
2022-09-16T05:59:56.470Z,98934.97
2022-09-16T06:02:44.048Z,98941.28
2022-09-16T06:05:33.054Z,98951.50
2022-09-16T06:08:20.641Z,98941.00
2022-09-16T06:11:11.175Z,98953.09
2022-09-16T06:14:01.584Z,98943.63
2022-09-16T06:16:51.457Z,98951.50
2022-09-16T06:19:39.003Z,98947.81
2022-09-16T06:22:26.276Z,98955.72
2022-09-16T06:25:13.610Z,98953.09
2022-09-16T06:28:02.040Z,98949.38
2022-09-16T06:30:49.631Z,98955.44
2022-09-16T06:33:39.071Z,98955.44
2022-09-16T06:36:31.652Z,98940.44
2022-09-16T06:39:19.075Z,98944.66
2022-09-16T06:42:08.924Z,98938.31
2022-09-16T06:45:01.132Z,98943.56
2022-09-16T06:47:48.322Z,98943.56
2022-09-16T06:50:37.573Z,98928.59
2022-09-16T06:53:25.240Z,98928.81
2022-09-16T06:56:14.575Z,98926.16
2022-09-16T06:59:02.203Z,98926.06
2022-09-16T07:01:49.495Z,98935.50
2022-09-16T07:04:37.455Z,98929.13
2022-09-16T07:07:26.423Z,98929.34
2022-09-16T07:10:13.684Z,98938.50
2022-09-16T07:13:00.972Z,98936.38
2022-09-16T07:16:11.814Z,98944.00
2022-09-16T07:19:00.716Z,98947.41
2022-09-16T07:21:48.685Z,98942.94
2022-09-16T07:24:37.333Z,98946.81
2022-09-16T07:27:24.999Z,98952.31
2022-09-16T07:30:13.329Z,98944.16
2022-09-16T07:33:00.769Z,98949.94
2022-09-16T07:35:48.062Z,98949.97
2022-09-16T07:38:35.955Z,98959.97
2022-09-16T07:41:28.389Z,98966.88
2022-09-16T07:44:19.418Z,98964.78
2022-09-16T07:47:07.015Z,98968.22
2022-09-16T07:49:56.152Z,98962.16
2022-09-16T07:55:37.111Z,98960.56
2022-09-16T07:58:26.044Z,98958.97
2022-09-16T08:01:15.175Z,98962.41
2022-09-16T08:04:04.462Z,98960.84
2022-09-16T08:06:52.075Z,98960.59
2022-09-16T08:09:44.202Z,98965.06
2022-09-16T08:12:37.439Z,98965.88
2022-09-16T08:15:26.349Z,98968.50
2022-09-16T08:18:13.759Z,98966.94
2022-09-16T08:21:07.772Z,98970.31
2022-09-16T08:24:01.597Z,98963.75
2022-09-16T08:26:49.072Z,98963.75
2022-09-16T08:29:36.431Z,98965.31
2022-09-16T08:32:25.216Z,98970.28
2022-09-16T08:35:14.410Z,98971.13
2022-09-16T08:38:02.556Z,98973.22
2022-09-16T08:40:50.030Z,98978.56
2022-09-16T08:43:43.385Z,98982.75
2022-09-16T08:46:37.624Z,98981.97
2022-09-16T08:49:36.571Z,98978.84
2022-09-16T08:52:33.143Z,98973.31
2022-09-16T08:55:31.616Z,98981.63
2022-09-16T08:58:22.382Z,98988.97
2022-09-16T09:01:21.873Z,98983.63
2022-09-16T09:04:09.839Z,98979.41
2022-09-16T09:07:10.993Z,98981.41
2022-09-16T09:10:11.123Z,98985.88
2022-09-16T09:13:05.321Z,98988.72
2022-09-16T09:16:00.491Z,98979.72
2022-09-16T09:19:01.946Z,98980.09
2022-09-16T09:22:03.647Z,98972.56
2022-09-16T09:25:23.173Z,98969.81
2022-09-16T09:28:39.559Z,98971.75
2022-09-16T09:31:37.943Z,98966.28
2022-09-16T09:34:42.355Z,98965.34
2022-09-16T09:37:55.880Z,98972.94
2022-09-16T09:40:48.856Z,98969.22
2022-09-16T09:43:41.950Z,98961.34
2022-09-16T09:46:35.121Z,98963.97
2022-09-16T09:49:30.820Z,98957.66
2022-09-16T09:52:26.239Z,98958.53
2022-09-16T09:55:19.265Z,98952.56
2022-09-16T09:58:18.937Z,98961.38
2022-09-16T10:01:07.044Z,98960.66
2022-09-16T10:03:56.168Z,98959.91
2022-09-16T10:06:45.985Z,98959.22
2022-09-16T10:09:34.381Z,98960.69
2022-09-16T10:12:32.799Z,98958.06
2022-09-16T10:15:24.125Z,98949.25
2022-09-16T10:18:15.987Z,98959.63
2022-09-16T10:21:12.905Z,98949.84
2022-09-16T10:24:00.263Z,98956.19
2022-09-16T10:26:47.705Z,98947.31
2022-09-16T10:29:36.580Z,98947.78
2022-09-16T10:32:24.760Z,98954.03
2022-09-16T10:35:22.853Z,98949.94
2022-09-16T10:38:20.536Z,98949.28
2022-09-16T10:41:11.193Z,98948.41
2022-09-16T10:44:00.892Z,98951.72
2022-09-16T10:46:57.081Z,98941.97
2022-09-16T10:49:49.119Z,98941.97
2022-09-16T10:52:44.846Z,98947.06
2022-09-16T10:55:36.602Z,98934.81
2022-09-16T10:58:24.261Z,98948.56
2022-09-16T11:01:33.428Z,98942.72
2022-09-16T11:04:46.342Z,98941.38
2022-09-16T11:07:43.626Z,98936.88
2022-09-16T11:10:40.559Z,98940.66
2022-09-16T11:13:50.583Z,98936.59
2022-09-16T11:17:00.005Z,98925.75
2022-09-16T11:20:13.772Z,98928.50
2022-09-16T11:23:10.039Z,98939.72
2022-09-16T11:26:07.313Z,98931.22
2022-09-16T11:29:27.449Z,98928.78
2022-09-16T11:32:26.776Z,98923.03
2022-09-16T11:35:34.913Z,98909.97
2022-09-16T11:38:41.201Z,98918.75
2022-09-16T11:41:36.439Z,98923.31
2022-09-16T11:44:40.028Z,98915.63
2022-09-16T11:47:58.342Z,98922.75
2022-09-16T11:50:56.956Z,98918.03
2022-09-16T11:54:07.217Z,98924.03
2022-09-16T11:56:58.641Z,98937.88
2022-09-16T11:59:53.829Z,98942.16
2022-09-16T12:02:48.095Z,98946.25
2022-09-16T12:05:42.849Z,98942.47
2022-09-16T12:08:39.217Z,98942.53
2022-09-16T12:11:33.937Z,98945.88
2022-09-16T12:14:27.336Z,98940.19
2022-09-16T12:17:21.566Z,98934.72
2022-09-16T12:20:19.082Z,98941.34
2022-09-16T12:23:18.478Z,98939.81
2022-09-16T12:26:11.640Z,98942.44
2022-09-16T12:29:05.832Z,98933.44
2022-09-16T12:32:00.271Z,98931.41
2022-09-16T12:34:55.513Z,98941.16
2022-09-16T12:37:49.167Z,98938.31
2022-09-16T12:40:49.043Z,98936.47
2022-09-16T12:44:23.280Z,98927.84
2022-09-16T12:47:56.971Z,98927.16
2022-09-16T12:51:10.171Z,98931.38
2022-09-16T12:54:51.227Z,98921.59
2022-09-16T12:58:04.579Z,98919.47
2022-09-16T13:01:02.005Z,98917.31
2022-09-16T13:03:54.945Z,98909.91
2022-09-16T13:06:49.275Z,98915.41
2022-09-16T13:09:39.721Z,98915.09
2022-09-16T13:12:40.814Z,98915.00
2022-09-16T13:15:34.239Z,98909.16
2022-09-16T13:18:27.942Z,98909.03
2022-09-16T13:21:24.979Z,98900.09
2022-09-16T13:24:25.430Z,98901.13
2022-09-16T13:27:32.863Z,98899.19
2022-09-16T13:30:36.844Z,98904.56
2022-09-16T13:33:29.583Z,98903.78
2022-09-16T13:36:35.024Z,98898.69
2022-09-16T13:39:34.104Z,98890.19
2022-09-16T13:42:24.849Z,98892.53
2022-09-16T13:45:36.974Z,98901.75
2022-09-16T13:48:28.926Z,98902.50
2022-09-16T13:51:21.128Z,98904.66
2022-09-16T13:54:27.960Z,98926.34
2022-09-16T13:57:42.841Z,98947.31
2022-09-16T14:00:37.654Z,98940.78
2022-09-16T14:03:48.310Z,98952.53
2022-09-16T14:06:58.980Z,98956.25
2022-09-16T14:09:55.269Z,98962.72
2022-09-16T14:12:57.557Z,98958.09
2022-09-16T14:15:48.094Z,98946.88
2022-09-16T14:18:37.688Z,98943.72
2022-09-16T14:21:26.993Z,98940.03
2022-09-16T14:24:19.934Z,98948.66
2022-09-16T14:27:20.168Z,98944.38
2022-09-16T14:30:16.892Z,98933.75
2022-09-16T14:33:04.928Z,98930.56
2022-09-16T14:35:56.810Z,98934.47
2022-09-16T14:38:49.258Z,98933.13
2022-09-16T14:41:39.861Z,98933.13
2022-09-16T14:44:33.344Z,98938.41
2022-09-16T14:47:39.668Z,98935.47
2022-09-16T14:50:38.202Z,98944.41
2022-09-16T14:53:35.804Z,98935.75
2022-09-16T14:56:24.491Z,98932.34
2022-09-16T14:59:14.217Z,98935.75
2022-09-16T15:02:06.669Z,98938.41
2022-09-16T15:04:59.023Z,98936.81
2022-09-16T15:08:12.126Z,98942.06
2022-09-16T15:10:59.256Z,98929.06
2022-09-16T15:13:47.098Z,98927.50
2022-09-16T15:16:36.525Z,98934.31
2022-09-16T15:19:28.240Z,98933.28
2022-09-16T15:22:16.883Z,98938.53
2022-09-16T15:25:04.634Z,98936.38
2022-09-16T15:27:54.761Z,98941.66
2022-09-16T15:30:49.756Z,98944.28
2022-09-16T15:33:42.668Z,98933.84
2022-09-16T15:36:38.201Z,98935.97
2022-09-16T15:39:28.459Z,98943.94
2022-09-16T15:42:22.068Z,98939.81
2022-09-16T15:45:19.892Z,98946.41
2022-09-16T15:48:14.552Z,98939.56
2022-09-16T15:51:08.608Z,98948.25
2022-09-16T15:54:00.645Z,98951.69
2022-09-16T15:56:59.050Z,98976.19
2022-09-16T16:00:06.056Z,98969.53
2022-09-16T16:03:05.277Z,98979.09
2022-09-16T16:05:54.936Z,98981.28
2022-09-16T16:08:48.423Z,98983.69
2022-09-16T16:11:35.708Z,98979.28
2022-09-16T16:14:24.132Z,98981.69
2022-09-16T16:17:15.371Z,98984.59
2022-09-16T16:20:04.558Z,98988.78
2022-09-16T16:22:53.142Z,98977.78
2022-09-16T16:25:41.265Z,98976.44
2022-09-16T16:28:28.631Z,98990.38
2022-09-16T16:31:18.797Z,98986.66
2022-09-16T16:34:06.308Z,98994.03
2022-09-16T16:36:55.499Z,98993.00
2022-09-16T16:39:42.871Z,98995.91
2022-09-16T16:42:31.216Z,98995.13
2022-09-16T16:45:18.841Z,99005.16
2022-09-16T16:48:06.200Z,98998.28
2022-09-16T16:50:58.608Z,99002.56
2022-09-16T16:53:49.729Z,99009.44
2022-09-16T16:56:40.175Z,99008.19
2022-09-16T16:59:28.286Z,99004.06
2022-09-16T17:02:15.817Z,99009.38
2022-09-16T17:05:03.223Z,99005.72
2022-09-16T17:07:50.567Z,99001.56
2022-09-16T17:10:41.127Z,98993.44
2022-09-16T17:13:28.360Z,98992.94
2022-09-16T17:16:19.443Z,98992.44
2022-09-16T17:19:06.864Z,98992.72
2022-09-16T17:21:55.664Z,98996.13
2022-09-16T17:24:42.977Z,98992.44
2022-09-16T17:27:31.600Z,98999.81
2022-09-16T17:30:19.883Z,99006.41
2022-09-16T17:33:07.548Z,99009.28
2022-09-16T17:36:02.587Z,99012.50
2022-09-16T17:38:50.278Z,99010.19
2022-09-16T17:41:38.123Z,99008.66
2022-09-16T17:44:27.624Z,99008.44
2022-09-16T17:47:15.214Z,99022.13
2022-09-16T17:50:05.434Z,99020.81
2022-09-16T17:52:53.064Z,99018.75
2022-09-16T17:55:40.476Z,99027.19
2022-09-16T17:58:27.795Z,99024.31
2022-09-16T18:01:19.368Z,99035.38
2022-09-16T18:04:07.601Z,99031.22
2022-09-16T18:06:55.839Z,99040.69
2022-09-16T18:09:43.348Z,99037.03
2022-09-16T18:12:31.719Z,99037.59
2022-09-16T18:15:19.393Z,99041.28
2022-09-16T18:18:08.085Z,99041.28
2022-09-16T18:20:56.652Z,99038.72
2022-09-16T18:23:44.336Z,99035.84
2022-09-16T18:26:32.690Z,99044.25
2022-09-16T18:29:20.125Z,99035.38
2022-09-16T18:32:09.497Z,99047.72
2022-09-16T18:34:58.225Z,99050.88
2022-09-16T18:37:45.889Z,99055.09
2022-09-16T18:40:37.525Z,99055.38
2022-09-16T18:43:26.887Z,99057.75
2022-09-16T18:46:16.838Z,99060.41
2022-09-16T18:49:05.165Z,99054.63
2022-09-16T18:51:55.005Z,99070.94
2022-09-16T18:54:44.081Z,99071.22
2022-09-16T18:57:31.455Z,99067.56
2022-09-16T19:00:18.957Z,99067.59
2022-09-16T19:03:07.536Z,99064.44
2022-09-16T19:05:58.465Z,99074.13
2022-09-16T19:08:47.478Z,99083.84
2022-09-16T19:11:36.407Z,99074.66
2022-09-16T19:14:27.520Z,99071.53
2022-09-16T19:17:15.131Z,99081.00
2022-09-16T19:20:02.662Z,99076.78
2022-09-16T19:22:50.636Z,99080.97
2022-09-16T19:25:39.506Z,99075.22
2022-09-16T19:28:27.112Z,99073.38
2022-09-16T19:31:15.784Z,99075.50
2022-09-16T19:34:03.772Z,99078.38
2022-09-16T19:36:51.700Z,99078.38
2022-09-16T19:39:39.455Z,99084.38
2022-09-16T19:42:28.243Z,99084.38
2022-09-16T19:45:15.840Z,99081.53
2022-09-16T19:48:03.533Z,99079.97
2022-09-16T19:50:53.117Z,99074.47
2022-09-16T19:53:42.357Z,99086.28
2022-09-16T19:56:33.593Z,99086.78
2022-09-16T19:59:22.505Z,99088.88
2022-09-16T20:02:11.267Z,99088.66
2022-09-16T20:04:58.857Z,99094.41
2022-09-16T20:07:45.965Z,99092.31
2022-09-16T20:10:34.895Z,99097.56
2022-09-16T20:13:22.696Z,99091.53
2022-09-16T20:16:11.749Z,99104.63
2022-09-16T20:18:59.635Z,99108.31
2022-09-16T20:21:47.381Z,99105.97
2022-09-16T20:24:35.220Z,99101.25
2022-09-16T20:27:23.025Z,99108.59
2022-09-16T20:30:11.852Z,99094.94
2022-09-16T20:33:00.819Z,99103.59
2022-09-16T20:35:48.380Z,99108.34
2022-09-16T20:38:36.164Z,99104.13
2022-09-16T20:41:29.432Z,99115.69
2022-09-16T20:44:17.099Z,99118.28
2022-09-16T20:47:04.403Z,99119.31
2022-09-16T20:49:53.017Z,99119.34
2022-09-16T20:52:40.240Z,99118.03
2022-09-16T20:55:27.562Z,99118.28
2022-09-16T20:58:14.942Z,99120.13
2022-09-16T21:01:07.821Z,99121.44
2022-09-16T21:03:57.649Z,99118.28
2022-09-16T21:06:47.284Z,99116.72
2022-09-16T21:09:34.707Z,99122.22
2022-09-16T21:12:22.356Z,99121.66
2022-09-16T21:15:10.988Z,99117.72
2022-09-16T21:17:58.505Z,99121.38
2022-09-16T21:20:45.836Z,99137.63
2022-09-16T21:23:36.112Z,99138.38
2022-09-16T21:26:25.889Z,99148.34
2022-09-16T21:29:16.157Z,99154.34
2022-09-16T21:32:04.098Z,99146.25
2022-09-16T21:34:52.832Z,99146.00
2022-09-16T21:37:40.531Z,99143.34
2022-09-16T21:40:29.172Z,99140.19
2022-09-16T21:43:16.726Z,99142.56
2022-09-16T21:46:04.407Z,99148.56
2022-09-16T21:48:52.887Z,99146.47
2022-09-16T21:51:40.668Z,99156.41
2022-09-16T21:54:30.565Z,99151.44
2022-09-16T21:57:20.059Z,99148.03
2022-09-16T22:00:10.321Z,99150.38
2022-09-16T22:02:57.996Z,99161.09
2022-09-16T22:05:45.240Z,99165.25
2022-09-16T22:08:32.753Z,99162.63
2022-09-16T22:11:22.385Z,99163.66
2022-09-16T22:14:12.328Z,99164.69
2022-09-16T22:17:00.089Z,99169.41
2022-09-16T22:19:48.663Z,99160.75
2022-09-16T22:22:36.621Z,99163.63
2022-09-16T22:25:24.011Z,99164.94
2022-09-16T22:28:11.305Z,99164.38
2022-09-16T22:31:08.875Z,99163.38
2022-09-16T22:33:58.027Z,99153.66
2022-09-16T22:36:45.213Z,99154.47
2022-09-16T22:39:32.549Z,99159.19
2022-09-16T22:42:19.988Z,99153.97
2022-09-16T22:45:08.789Z,99154.72
2022-09-16T22:47:57.436Z,99150.25
2022-09-16T22:50:44.895Z,99153.88
2022-09-16T22:53:33.686Z,99157.22
2022-09-16T22:56:24.223Z,99147.50
2022-09-16T22:59:18.394Z,99146.75
2022-09-16T23:02:06.059Z,99151.97
2022-09-16T23:04:55.581Z,99154.59
2022-09-16T23:07:43.081Z,99149.09
2022-09-16T23:10:30.317Z,99153.28
2022-09-16T23:13:17.713Z,99156.94
2022-09-16T23:16:07.523Z,99161.63
2022-09-16T23:18:57.566Z,99158.22
2022-09-16T23:21:46.845Z,99164.25
2022-09-16T23:24:34.095Z,99165.56
2022-09-16T23:27:21.415Z,99159.53
2022-09-16T23:30:10.552Z,99155.09
2022-09-16T23:32:58.449Z,99161.09
2022-09-16T23:35:51.480Z,99165.56
2022-09-16T23:38:41.649Z,99163.19
2022-09-16T23:41:29.695Z,99171.28
2022-09-16T23:44:17.665Z,99161.88
2022-09-16T23:47:05.396Z,99157.66
2022-09-16T23:49:53.439Z,99166.06
2022-09-16T23:52:40.783Z,99163.44
2022-09-16T23:55:29.858Z,99160.81
2022-09-16T23:58:18.078Z,99166.06
